createdAt,value
2019-05-05T00:01:27.224Z,3.58
2019-05-05T00:04:16.175Z,3.92
2019-05-05T00:06:45.404Z,4.10
2019-05-05T00:09:14.779Z,4.05
2019-05-05T00:12:05.316Z,3.00
2019-05-05T00:14:45.003Z,3.50
2019-05-05T00:17:18.744Z,2.97
2019-05-05T00:19:48.053Z,3.85
2019-05-05T00:22:17.215Z,3.40
2019-05-05T00:24:46.489Z,3.00
2019-05-05T00:27:15.683Z,3.50
2019-05-05T00:29:45.445Z,3.17
2019-05-05T00:32:15.256Z,3.22
2019-05-05T00:34:44.695Z,3.17
2019-05-05T00:37:15.234Z,2.85
2019-05-05T00:42:15.550Z,2.92
2019-05-05T00:44:44.881Z,2.90
2019-05-05T00:47:21.319Z,2.67
2019-05-05T00:49:52.138Z,2.95
2019-05-05T00:52:21.360Z,3.00
2019-05-05T00:54:50.549Z,2.95
2019-05-05T00:57:19.767Z,3.58
2019-05-05T00:59:49.028Z,3.22
2019-05-05T01:02:19.827Z,3.67
2019-05-05T01:05:05.287Z,3.50
2019-05-05T01:07:35.138Z,2.98
2019-05-05T01:10:06.605Z,3.40
2019-05-05T01:12:35.954Z,3.27
2019-05-05T01:15:05.623Z,3.08
2019-05-05T01:17:34.866Z,2.92
2019-05-05T01:20:07.050Z,3.15
2019-05-05T01:22:36.475Z,3.55
2019-05-05T01:25:07.014Z,3.52
2019-05-05T01:27:36.257Z,4.00
2019-05-05T01:30:15.186Z,3.62
2019-05-05T01:33:05.478Z,3.30
2019-05-05T01:35:34.919Z,2.95
2019-05-05T01:38:14.954Z,3.00
2019-05-05T01:40:51.915Z,2.77
2019-05-05T01:43:21.099Z,3.15
2019-05-05T01:45:50.309Z,3.17
2019-05-05T01:48:19.554Z,2.95
2019-05-05T01:50:48.726Z,3.42
2019-05-05T01:53:17.956Z,2.98
2019-05-05T01:55:47.156Z,3.40
2019-05-05T01:58:16.858Z,3.58
2019-05-05T02:00:46.075Z,3.20
2019-05-05T02:03:15.255Z,3.20
2019-05-05T02:05:45.269Z,2.92
2019-05-05T02:08:15.296Z,3.45
2019-05-05T02:10:45.368Z,2.90
2019-05-05T02:13:16.106Z,3.05
2019-05-05T02:15:45.378Z,4.25
2019-05-05T02:18:14.961Z,3.92
2019-05-05T02:21:01.056Z,3.80
2019-05-05T02:23:30.169Z,3.17
2019-05-05T02:25:59.341Z,3.47
2019-05-05T02:28:30.203Z,2.85
2019-05-05T02:31:05.600Z,3.25
2019-05-05T02:33:35.452Z,3.42
2019-05-05T02:36:05.739Z,2.70
2019-05-05T02:38:35.662Z,3.27
2019-05-05T02:41:05.296Z,2.72
2019-05-05T02:43:35.004Z,3.22
2019-05-05T02:46:07.117Z,2.70
2019-05-05T02:48:36.687Z,3.25
2019-05-05T02:51:07.253Z,3.20
2019-05-05T02:53:40.772Z,2.72
2019-05-05T02:56:11.878Z,3.30
2019-05-05T02:58:41.111Z,3.77
2019-05-05T03:01:20.723Z,3.77
2019-05-05T03:03:50.021Z,3.57
2019-05-05T03:06:19.215Z,4.45
2019-05-05T03:08:48.585Z,4.08
2019-05-05T03:11:17.879Z,4.28
2019-05-05T03:13:47.061Z,4.17
2019-05-05T03:16:18.767Z,4.33
2019-05-05T03:18:48.044Z,4.47
2019-05-05T03:21:17.975Z,4.53
2019-05-05T03:23:47.182Z,4.42
2019-05-05T03:26:16.522Z,4.85
2019-05-05T03:28:50.341Z,4.80
2019-05-05T03:31:19.562Z,4.78
2019-05-05T03:33:48.777Z,5.00
2019-05-05T03:36:18.266Z,4.50
2019-05-05T03:38:47.528Z,5.25
2019-05-05T03:41:21.072Z,4.87
2019-05-05T03:44:06.748Z,4.20
2019-05-05T03:46:36.727Z,5.40
2019-05-05T03:49:06.386Z,5.47
2019-05-05T03:51:35.654Z,4.97
2019-05-05T03:54:04.904Z,5.20
2019-05-05T03:56:34.745Z,5.53
2019-05-05T03:59:04.927Z,5.20
2019-05-05T04:01:56.479Z,5.25
2019-05-05T04:04:27.343Z,6.20
2019-05-05T04:06:58.188Z,5.30
2019-05-05T04:09:28.270Z,4.97
2019-05-05T04:11:57.627Z,5.10
2019-05-05T04:14:26.847Z,5.40
2019-05-05T04:16:57.677Z,5.15
2019-05-05T04:19:28.482Z,5.30
2019-05-05T04:21:57.717Z,5.78
2019-05-05T04:24:26.964Z,5.70
2019-05-05T04:26:56.333Z,5.97
2019-05-05T04:29:25.551Z,6.03
2019-05-05T04:31:54.783Z,5.80
2019-05-05T04:34:24.174Z,6.55
2019-05-05T04:36:54.638Z,5.20
2019-05-05T04:41:54.600Z,5.25
2019-05-05T04:44:23.833Z,5.83
2019-05-05T04:46:54.709Z,5.58
2019-05-05T04:49:28.105Z,6.20
2019-05-05T04:52:14.372Z,5.03
2019-05-05T04:54:45.374Z,5.92
2019-05-05T04:57:15.010Z,5.72
2019-05-05T04:59:44.539Z,5.93
2019-05-05T05:02:18.454Z,5.90
2019-05-05T05:04:53.558Z,5.65
2019-05-05T05:07:24.189Z,5.87
2019-05-05T05:12:23.815Z,5.92
2019-05-05T05:14:54.658Z,5.83
2019-05-05T05:17:25.599Z,6.00
2019-05-05T05:19:54.787Z,5.60
2019-05-05T05:22:24.432Z,6.08
2019-05-05T05:24:54.224Z,5.80
2019-05-05T05:27:24.482Z,5.45
2019-05-05T05:29:54.357Z,5.78
2019-05-05T05:32:24.760Z,5.97
2019-05-05T05:34:54.403Z,5.62
2019-05-05T05:37:24.110Z,6.05
2019-05-05T05:39:58.067Z,5.55
2019-05-05T05:42:27.247Z,5.70
2019-05-05T05:45:14.561Z,5.37
2019-05-05T05:48:00.516Z,5.10
2019-05-05T05:50:44.336Z,5.90
2019-05-05T05:53:14.049Z,5.35
2019-05-05T05:55:44.783Z,4.97
2019-05-05T05:58:14.243Z,5.97
2019-05-05T06:00:44.416Z,5.10
2019-05-05T06:03:14.141Z,5.70
2019-05-05T06:05:43.748Z,5.62
2019-05-05T06:08:14.215Z,5.35
2019-05-05T06:13:15.382Z,6.17
2019-05-05T06:15:44.838Z,5.42
2019-05-05T06:18:14.052Z,5.90
2019-05-05T06:20:44.550Z,5.08
2019-05-05T06:23:14.682Z,4.97
2019-05-05T06:25:44.844Z,4.65
2019-05-05T06:28:14.667Z,4.65
2019-05-05T06:30:44.450Z,4.87
2019-05-05T06:33:14.182Z,5.15
2019-05-05T06:35:44.275Z,5.08
2019-05-05T06:38:13.814Z,4.97
2019-05-05T06:41:00.670Z,4.67
2019-05-05T06:43:40.412Z,4.15
2019-05-05T06:46:11.298Z,4.90
2019-05-05T06:48:40.567Z,5.83
2019-05-05T06:51:09.763Z,4.90
2019-05-05T06:53:38.983Z,5.20
2019-05-05T06:56:08.184Z,5.42
2019-05-05T06:58:37.366Z,5.40
2019-05-05T07:01:06.607Z,5.65
2019-05-05T07:03:35.815Z,5.15
2019-05-05T07:06:04.995Z,5.50
2019-05-05T07:08:34.847Z,4.62
2019-05-05T07:11:04.301Z,4.12
2019-05-05T07:13:34.055Z,4.28
2019-05-05T07:16:04.829Z,5.42
2019-05-05T07:18:34.325Z,4.55
2019-05-05T07:21:03.911Z,4.75
2019-05-05T07:23:34.067Z,4.13
2019-05-05T07:26:04.277Z,4.05
2019-05-05T07:28:34.184Z,4.62
2019-05-05T07:31:04.436Z,3.95
2019-05-05T07:33:34.585Z,4.05
2019-05-05T07:36:21.755Z,4.08
2019-05-05T07:38:51.014Z,3.92
2019-05-05T07:41:20.332Z,4.00
2019-05-05T07:43:49.590Z,4.37
2019-05-05T07:46:18.796Z,3.50
2019-05-05T07:48:47.963Z,3.90
2019-05-05T07:51:17.276Z,4.67
2019-05-05T07:53:46.533Z,4.28
2019-05-05T07:56:15.750Z,3.98
2019-05-05T07:58:44.958Z,4.37
2019-05-05T08:01:14.320Z,4.08
2019-05-05T08:03:44.535Z,3.87
2019-05-05T08:08:44.475Z,4.27
2019-05-05T08:11:39.349Z,4.55
2019-05-05T08:14:08.596Z,3.75
2019-05-05T08:16:57.257Z,3.77
2019-05-05T08:19:34.719Z,3.47
2019-05-05T08:22:04.180Z,3.72
2019-05-05T08:24:51.216Z,4.30
2019-05-05T08:27:22.059Z,2.75
2019-05-05T08:29:54.278Z,3.62
2019-05-05T08:32:25.274Z,3.50
2019-05-05T08:35:00.014Z,4.33
2019-05-05T08:37:25.446Z,4.15
2019-05-05T08:39:54.731Z,4.17
2019-05-05T08:42:24.718Z,4.35
2019-05-05T08:44:54.003Z,4.37
2019-05-05T08:47:24.596Z,4.35
2019-05-05T08:49:54.211Z,3.80
2019-05-05T08:52:23.896Z,3.08
2019-05-05T08:54:54.121Z,4.05
2019-05-05T08:57:23.681Z,4.05
2019-05-05T08:59:54.461Z,3.50
2019-05-05T09:02:24.060Z,3.65
2019-05-05T09:04:53.898Z,4.15
2019-05-05T09:07:24.315Z,3.72
2019-05-05T09:09:54.668Z,3.30
2019-05-05T09:12:24.077Z,3.65
2019-05-05T09:14:53.982Z,3.27
2019-05-05T09:17:24.364Z,3.30
2019-05-05T09:19:54.157Z,3.27
2019-05-05T09:22:24.572Z,3.25
2019-05-05T09:24:58.502Z,3.58
2019-05-05T09:27:41.389Z,3.27
2019-05-05T09:30:14.219Z,3.90
2019-05-05T09:32:43.846Z,3.37
2019-05-05T09:35:13.926Z,3.27
2019-05-05T09:37:44.333Z,3.83
2019-05-05T09:40:13.965Z,3.20
2019-05-05T09:42:44.335Z,4.53
2019-05-05T09:45:14.062Z,3.80
2019-05-05T09:47:44.996Z,3.80
2019-05-05T09:50:14.497Z,3.50
2019-05-05T09:52:44.408Z,4.20
2019-05-05T09:55:13.963Z,4.05
2019-05-05T09:57:43.915Z,3.58
2019-05-05T10:00:14.429Z,3.72
2019-05-05T10:02:44.287Z,3.30
2019-05-05T10:05:14.549Z,3.72
2019-05-05T10:07:44.160Z,3.60
2019-05-05T10:10:13.856Z,3.50
2019-05-05T10:12:44.610Z,3.50
2019-05-05T10:17:44.032Z,3.40
2019-05-05T10:20:14.511Z,4.25
2019-05-05T10:25:34.357Z,3.20
2019-05-05T10:28:04.345Z,3.37
2019-05-05T10:30:34.294Z,3.65
2019-05-05T10:33:03.857Z,3.30
2019-05-05T10:35:34.444Z,3.40
2019-05-05T10:40:34.063Z,3.55
2019-05-05T10:43:04.411Z,4.03
2019-05-05T10:48:04.067Z,3.37
2019-05-05T10:50:34.326Z,3.12
2019-05-05T10:53:04.672Z,3.47
2019-05-05T10:58:04.437Z,3.75
2019-05-05T11:00:49.139Z,3.45
2019-05-05T11:03:18.407Z,4.05
2019-05-05T11:05:47.757Z,3.70
2019-05-05T11:08:17.053Z,7.53
2019-05-05T11:10:46.256Z,3.52
2019-05-05T11:13:15.535Z,3.98
2019-05-05T11:15:44.783Z,3.85
2019-05-05T11:18:14.982Z,2.98
2019-05-05T11:20:45.203Z,3.70
2019-05-05T11:23:15.108Z,3.50
2019-05-05T11:25:44.682Z,2.90
2019-05-05T11:28:14.222Z,2.92
2019-05-05T11:30:46.091Z,3.10
2019-05-05T11:33:34.857Z,3.67
2019-05-05T11:36:23.890Z,3.22
2019-05-05T11:38:53.662Z,3.12
2019-05-05T11:41:24.261Z,3.10
2019-05-05T11:46:24.760Z,2.85
2019-05-05T11:48:54.347Z,2.80
2019-05-05T11:51:24.973Z,2.72
2019-05-05T11:56:23.417Z,2.70
2019-05-05T11:58:54.487Z,3.08
2019-05-05T12:01:24.298Z,2.75
2019-05-05T12:03:53.733Z,3.40
2019-05-05T12:06:24.646Z,3.02
2019-05-05T12:08:53.925Z,3.17
2019-05-05T12:11:24.033Z,3.33
2019-05-05T12:13:54.657Z,2.60
2019-05-05T12:16:30.771Z,3.05
2019-05-05T12:19:01.883Z,3.75
2019-05-05T12:21:31.116Z,2.98
2019-05-05T12:24:03.814Z,3.70
2019-05-05T12:26:34.825Z,3.30
2019-05-05T12:29:05.924Z,3.33
2019-05-05T12:31:36.767Z,2.75
2019-05-05T12:34:06.017Z,3.37
2019-05-05T12:36:35.212Z,3.47
2019-05-05T12:39:07.191Z,3.83
2019-05-05T12:41:36.539Z,3.02
2019-05-05T12:44:07.377Z,3.67
2019-05-05T12:46:38.278Z,3.45
2019-05-05T12:49:09.169Z,3.27
2019-05-05T12:51:38.756Z,3.65
2019-05-05T12:54:07.913Z,3.37
2019-05-05T12:56:37.129Z,4.67
2019-05-05T12:59:08.001Z,3.67
2019-05-05T13:01:38.829Z,4.28
2019-05-05T13:04:08.012Z,3.35
2019-05-05T13:06:37.508Z,3.70
2019-05-05T13:09:07.638Z,3.85
2019-05-05T13:11:37.114Z,4.47
2019-05-05T13:14:06.376Z,3.58
2019-05-05T13:16:35.646Z,3.85
2019-05-05T13:19:06.853Z,4.35
2019-05-05T13:21:49.556Z,3.60
2019-05-05T13:24:20.388Z,3.87
2019-05-05T13:26:54.195Z,3.12
2019-05-05T13:29:24.581Z,4.10
2019-05-05T13:31:54.428Z,3.35
2019-05-05T13:34:23.965Z,3.72
2019-05-05T13:36:53.127Z,3.42
2019-05-05T13:39:24.562Z,3.37
2019-05-05T13:41:53.976Z,3.10
2019-05-05T13:44:24.947Z,3.40
2019-05-05T13:46:54.147Z,3.25
2019-05-05T13:49:36.735Z,2.87
2019-05-05T13:52:05.916Z,3.02
2019-05-05T13:54:35.157Z,2.90
2019-05-05T13:57:04.374Z,2.80
2019-05-05T13:59:34.066Z,3.08
2019-05-05T14:02:03.402Z,3.12
2019-05-05T14:04:34.384Z,3.10
2019-05-05T14:07:04.138Z,3.12
2019-05-05T14:09:33.422Z,2.90
2019-05-05T14:12:04.104Z,3.60
2019-05-05T14:14:33.651Z,2.70
2019-05-05T14:17:04.115Z,3.12
2019-05-05T14:22:04.486Z,2.37
2019-05-05T14:24:38.649Z,3.00
2019-05-05T14:27:07.966Z,2.98
2019-05-05T14:29:38.896Z,2.40
2019-05-05T14:32:09.559Z,2.52
2019-05-05T14:34:49.176Z,2.30
2019-05-05T14:37:28.765Z,2.73
2019-05-05T14:39:58.200Z,2.12
2019-05-05T14:42:27.387Z,2.87
2019-05-05T14:44:56.656Z,2.47
2019-05-05T14:47:26.276Z,2.60
2019-05-05T14:49:55.454Z,2.80
2019-05-05T14:52:24.901Z,2.40
2019-05-05T14:54:54.481Z,2.45
2019-05-05T14:57:25.354Z,2.60
2019-05-05T14:59:54.597Z,3.35
2019-05-05T15:02:24.519Z,3.35
2019-05-05T15:04:55.526Z,4.00
2019-05-05T15:07:30.076Z,3.00
2019-05-05T15:10:04.269Z,3.25
2019-05-05T15:12:38.134Z,2.50
2019-05-05T15:15:07.768Z,2.40
2019-05-05T15:17:37.012Z,2.40
2019-05-05T15:20:07.761Z,2.47
2019-05-05T15:22:36.942Z,2.40
2019-05-05T15:25:07.084Z,2.30
2019-05-05T15:27:36.372Z,3.00
2019-05-05T15:30:07.696Z,2.62
2019-05-05T15:32:36.900Z,2.60
2019-05-05T15:35:07.440Z,2.58
2019-05-05T15:40:05.805Z,3.05
2019-05-05T15:42:35.075Z,2.90
2019-05-05T15:45:05.064Z,3.65
2019-05-05T15:47:34.478Z,2.87
2019-05-05T15:50:06.400Z,2.87
2019-05-05T15:52:35.573Z,2.98
2019-05-05T15:55:07.046Z,2.90
2019-05-05T15:57:36.349Z,2.50
2019-05-05T16:00:08.838Z,3.17
2019-05-05T16:02:38.038Z,3.20
2019-05-05T16:05:09.077Z,3.05
2019-05-05T16:07:38.266Z,3.10
2019-05-05T16:10:07.936Z,3.05
2019-05-05T16:12:39.762Z,3.20
2019-05-05T16:15:28.397Z,2.65
2019-05-05T16:17:59.346Z,3.17
2019-05-05T16:20:33.255Z,2.95
2019-05-05T16:23:11.668Z,3.20
2019-05-05T16:25:41.793Z,3.75
2019-05-05T16:28:11.142Z,2.75
2019-05-05T16:30:40.386Z,3.00
2019-05-05T16:33:09.586Z,3.00
2019-05-05T16:35:38.810Z,3.15
2019-05-05T16:38:08.114Z,2.77
2019-05-05T16:40:37.359Z,2.95
2019-05-05T16:43:06.518Z,3.17
2019-05-05T16:45:35.735Z,3.20
2019-05-05T16:48:04.964Z,3.17
2019-05-05T16:50:36.697Z,3.70
2019-05-05T16:53:06.335Z,3.80
2019-05-05T16:55:44.864Z,3.12
2019-05-05T16:58:14.436Z,3.02
2019-05-05T17:00:44.101Z,2.83
2019-05-05T17:03:13.628Z,3.10
2019-05-05T17:05:46.419Z,3.60
2019-05-05T17:08:14.065Z,3.30
2019-05-05T17:10:43.626Z,3.42
2019-05-05T17:13:17.063Z,3.02
2019-05-05T17:15:50.745Z,3.60
2019-05-05T17:18:33.607Z,3.05
2019-05-05T17:21:05.492Z,3.02
2019-05-05T17:23:34.715Z,3.17
2019-05-05T17:26:03.896Z,3.22
2019-05-05T17:28:33.525Z,2.85
2019-05-05T17:31:02.787Z,2.77
2019-05-05T17:33:33.764Z,3.10
2019-05-05T17:36:04.620Z,2.95
2019-05-05T17:38:34.292Z,3.10
2019-05-05T17:41:05.313Z,3.50
2019-05-05T17:43:51.186Z,4.00
2019-05-05T17:46:24.916Z,3.70
2019-05-05T17:48:58.512Z,3.47
2019-05-05T17:51:35.194Z,4.10
2019-05-05T17:54:08.786Z,4.28
2019-05-05T17:56:38.013Z,4.37
2019-05-05T17:59:07.208Z,4.20
2019-05-05T18:01:36.457Z,3.77
2019-05-05T18:04:05.680Z,3.47
2019-05-05T18:06:44.021Z,4.10
2019-05-05T18:09:15.138Z,4.12
2019-05-05T18:11:53.470Z,4.25
2019-05-05T18:14:33.539Z,3.70
2019-05-05T18:17:04.225Z,3.80
2019-05-05T18:22:03.340Z,3.20
2019-05-05T18:24:33.744Z,3.95
2019-05-05T18:27:04.551Z,3.70
2019-05-05T18:29:34.067Z,3.55
2019-05-05T18:32:04.340Z,3.37
2019-05-05T18:34:33.764Z,3.35
2019-05-05T18:37:03.776Z,3.75
2019-05-05T18:39:34.313Z,6.10
2019-05-05T18:44:38.277Z,4.05
2019-05-05T18:47:18.755Z,3.87
2019-05-05T18:52:16.749Z,3.80
2019-05-05T18:54:45.990Z,4.10
2019-05-05T18:57:15.373Z,4.65
2019-05-05T18:59:44.907Z,3.55
2019-05-05T19:02:21.243Z,3.35
2019-05-05T19:05:08.387Z,3.77
2019-05-05T19:07:39.211Z,3.17
2019-05-05T19:10:09.362Z,2.95
2019-05-05T19:12:38.708Z,3.30
2019-05-05T19:15:08.387Z,3.67
2019-05-05T19:17:37.617Z,3.70
2019-05-05T19:20:29.034Z,3.30
2019-05-05T19:23:05.064Z,4.08
2019-05-05T19:25:35.510Z,4.10
2019-05-05T19:28:04.732Z,4.05
2019-05-05T19:30:36.159Z,3.47
2019-05-05T19:33:05.445Z,3.72
2019-05-05T19:35:41.903Z,3.92
2019-05-05T19:38:05.550Z,4.22
2019-05-05T19:40:34.748Z,3.60
2019-05-05T19:43:04.797Z,3.37
2019-05-05T19:45:34.592Z,4.28
2019-05-05T19:48:05.990Z,4.00
2019-05-05T19:50:36.510Z,4.33
2019-05-05T19:53:07.419Z,4.37
2019-05-05T19:55:36.715Z,3.37
2019-05-05T19:58:05.885Z,3.90
2019-05-05T20:00:38.313Z,3.65
2019-05-05T20:03:06.269Z,4.20
2019-05-05T20:05:35.489Z,3.92
2019-05-05T20:08:04.655Z,4.25
2019-05-05T20:10:34.034Z,4.62
2019-05-05T20:13:05.023Z,4.85
2019-05-05T20:15:36.045Z,5.42
2019-05-05T20:18:05.238Z,4.50
2019-05-05T20:20:34.449Z,5.00
2019-05-05T20:23:04.225Z,4.20
2019-05-05T20:25:34.031Z,4.85
2019-05-05T20:28:03.914Z,5.33
2019-05-05T20:30:34.260Z,5.22
2019-05-05T20:33:05.204Z,4.62
2019-05-05T20:35:53.865Z,4.17
2019-05-05T20:38:27.784Z,5.20
2019-05-05T20:41:07.545Z,6.20
2019-05-05T20:43:36.829Z,5.60
2019-05-05T20:46:06.013Z,5.05
2019-05-05T20:48:35.260Z,4.58
2019-05-05T20:51:04.901Z,4.92
2019-05-05T20:53:34.491Z,4.50
2019-05-05T20:56:04.430Z,4.90
2019-05-05T20:58:33.827Z,5.58
2019-05-05T21:01:04.501Z,5.40
2019-05-05T21:03:34.631Z,6.25
2019-05-05T21:06:04.602Z,6.03
2019-05-05T21:08:34.873Z,5.92
2019-05-05T21:11:04.659Z,5.72
2019-05-05T21:13:34.342Z,6.50
2019-05-05T21:16:03.645Z,6.50
2019-05-05T21:18:34.714Z,5.42
2019-05-05T21:21:05.410Z,5.85
2019-05-05T21:23:36.246Z,5.62
2019-05-05T21:26:07.054Z,5.40
2019-05-05T21:28:36.350Z,5.87
2019-05-05T21:31:05.490Z,6.60
2019-05-05T21:33:35.854Z,6.92
2019-05-05T21:36:05.112Z,6.40
2019-05-05T21:38:35.604Z,6.47
2019-05-05T21:41:05.004Z,6.50
2019-05-05T21:43:34.276Z,6.87
2019-05-05T21:46:04.473Z,6.62
2019-05-05T21:48:34.120Z,6.53
2019-05-05T21:51:14.295Z,7.25
2019-05-05T21:53:47.919Z,5.92
2019-05-05T21:56:36.639Z,6.05
2019-05-05T21:59:06.264Z,5.90
2019-05-05T22:01:39.845Z,5.67
2019-05-05T22:04:06.509Z,6.05
2019-05-05T22:06:35.712Z,5.58
2019-05-05T22:09:06.992Z,5.85
2019-05-05T22:11:36.277Z,6.50
2019-05-05T22:14:05.538Z,6.47
2019-05-05T22:16:35.588Z,5.97
2019-05-05T22:19:06.133Z,5.97
2019-05-05T22:21:36.973Z,6.03
2019-05-05T22:24:16.107Z,5.67
2019-05-05T22:26:45.587Z,5.90
2019-05-05T22:29:17.040Z,5.72
2019-05-05T22:31:45.806Z,6.00
2019-05-05T22:34:14.963Z,5.78
2019-05-05T22:36:44.814Z,6.08
2019-05-05T22:39:16.661Z,6.03
2019-05-05T22:41:45.220Z,6.03
2019-05-05T22:44:14.397Z,5.28
2019-05-05T22:46:43.563Z,5.67
2019-05-05T22:49:14.753Z,5.95
2019-05-05T22:51:44.700Z,5.53
2019-05-05T22:54:14.904Z,5.85
2019-05-05T22:56:44.907Z,5.92
2019-05-05T22:59:14.171Z,6.10
2019-05-05T23:01:43.316Z,5.67
2019-05-05T23:04:23.997Z,6.30
2019-05-05T23:06:57.926Z,6.03
2019-05-05T23:09:27.213Z,5.58
2019-05-05T23:11:56.387Z,6.85
2019-05-05T23:14:28.687Z,6.15
2019-05-05T23:17:16.935Z,6.47
2019-05-05T23:20:04.838Z,6.30
2019-05-05T23:22:35.896Z,6.05
2019-05-05T23:25:10.799Z,5.97
2019-05-05T23:27:50.426Z,6.15
2019-05-05T23:30:23.884Z,6.35
2019-05-05T23:32:54.601Z,6.12
2019-05-05T23:35:24.078Z,5.92
2019-05-05T23:37:55.287Z,5.87
2019-05-05T23:40:25.758Z,6.00
2019-05-05T23:45:24.897Z,5.47
2019-05-05T23:50:24.317Z,5.78
2019-05-05T23:52:54.445Z,6.05
2019-05-05T23:55:24.260Z,6.45
2019-05-05T23:57:54.796Z,6.35
